sensor_id;sensor_type;location;lat;lon;timestamp;temperature;humidity
43561;DHT22;32305;46.410;17.394;2023-02-11T00:01:04;19.80;29.30
43561;DHT22;32305;46.410;17.394;2023-02-11T00:03:31;19.80;29.30
43561;DHT22;32305;46.410;17.394;2023-02-11T00:06:04;19.70;29.20
43561;DHT22;32305;46.410;17.394;2023-02-11T00:08:32;19.80;29.30
43561;DHT22;32305;46.410;17.394;2023-02-11T00:10:59;19.70;29.30
43561;DHT22;32305;46.410;17.394;2023-02-11T00:13:26;19.70;29.30
43561;DHT22;32305;46.410;17.394;2023-02-11T00:15:54;19.70;29.20
43561;DHT22;32305;46.410;17.394;2023-02-11T00:18:22;19.70;29.30
43561;DHT22;32305;46.410;17.394;2023-02-11T00:20:49;19.70;29.30
43561;DHT22;32305;46.410;17.394;2023-02-11T00:23:16;19.70;29.30
43561;DHT22;32305;46.410;17.394;2023-02-11T00:25:44;19.70;29.30
43561;DHT22;32305;46.410;17.394;2023-02-11T00:28:11;19.70;29.30
43561;DHT22;32305;46.410;17.394;2023-02-11T00:30:39;19.70;29.30
43561;DHT22;32305;46.410;17.394;2023-02-11T00:33:06;19.70;29.30
43561;DHT22;32305;46.410;17.394;2023-02-11T00:35:36;19.70;29.30
43561;DHT22;32305;46.410;17.394;2023-02-11T00:38:03;19.70;29.30
43561;DHT22;32305;46.410;17.394;2023-02-11T00:40:30;19.70;29.30
43561;DHT22;32305;46.410;17.394;2023-02-11T00:42:57;19.60;29.20
43561;DHT22;32305;46.410;17.394;2023-02-11T00:45:25;19.60;29.20
43561;DHT22;32305;46.410;17.394;2023-02-11T00:47:52;19.70;29.30
43561;DHT22;32305;46.410;17.394;2023-02-11T00:50:19;19.60;29.20
43561;DHT22;32305;46.410;17.394;2023-02-11T00:52:46;19.70;29.30
43561;DHT22;32305;46.410;17.394;2023-02-11T00:55:14;19.70;29.30
43561;DHT22;32305;46.410;17.394;2023-02-11T00:57:41;19.60;29.30
43561;DHT22;32305;46.410;17.394;2023-02-11T01:00:10;19.60;29.20
43561;DHT22;32305;46.410;17.394;2023-02-11T01:02:37;19.70;29.30
43561;DHT22;32305;46.410;17.394;2023-02-11T01:05:05;19.70;29.30
43561;DHT22;32305;46.410;17.394;2023-02-11T01:07:32;19.70;29.30
43561;DHT22;32305;46.410;17.394;2023-02-11T01:09:59;19.70;29.30
43561;DHT22;32305;46.410;17.394;2023-02-11T01:12:27;19.70;29.30
43561;DHT22;32305;46.410;17.394;2023-02-11T01:14:54;19.70;29.30
43561;DHT22;32305;46.410;17.394;2023-02-11T01:17:21;19.60;29.20
43561;DHT22;32305;46.410;17.394;2023-02-11T01:19:48;19.70;29.20
43561;DHT22;32305;46.410;17.394;2023-02-11T01:22:15;19.70;29.20
43561;DHT22;32305;46.410;17.394;2023-02-11T01:24:42;19.70;29.20
43561;DHT22;32305;46.410;17.394;2023-02-11T01:27:09;19.60;29.10
43561;DHT22;32305;46.410;17.394;2023-02-11T01:29:36;19.60;29.10
43561;DHT22;32305;46.410;17.394;2023-02-11T01:32:03;19.60;29.20
43561;DHT22;32305;46.410;17.394;2023-02-11T01:34:31;19.60;29.20
43561;DHT22;32305;46.410;17.394;2023-02-11T01:36:58;19.60;29.20
43561;DHT22;32305;46.410;17.394;2023-02-11T01:39:26;19.60;29.20
43561;DHT22;32305;46.410;17.394;2023-02-11T01:41:56;19.60;29.20
43561;DHT22;32305;46.410;17.394;2023-02-11T01:44:29;19.60;29.20
43561;DHT22;32305;46.410;17.394;2023-02-11T01:46:56;19.60;29.10
43561;DHT22;32305;46.410;17.394;2023-02-11T01:49:30;19.60;29.10
43561;DHT22;32305;46.410;17.394;2023-02-11T01:52:12;19.60;29.10
43561;DHT22;32305;46.410;17.394;2023-02-11T01:54:46;19.60;29.20
43561;DHT22;32305;46.410;17.394;2023-02-11T01:57:38;19.60;29.10
43561;DHT22;32305;46.410;17.394;2023-02-11T02:00:33;19.50;29.10
43561;DHT22;32305;46.410;17.394;2023-02-11T02:03:09;19.50;29.10
43561;DHT22;32305;46.410;17.394;2023-02-11T02:05:45;19.50;29.10
43561;DHT22;32305;46.410;17.394;2023-02-11T02:08:37;19.50;29.10
43561;DHT22;32305;46.410;17.394;2023-02-11T02:11:06;19.50;29.10
43561;DHT22;32305;46.410;17.394;2023-02-11T02:13:34;19.50;29.10
43561;DHT22;32305;46.410;17.394;2023-02-11T02:16:06;19.50;29.10
43561;DHT22;32305;46.410;17.394;2023-02-11T02:19:02;19.50;29.10
43561;DHT22;32305;46.410;17.394;2023-02-11T02:25:12;19.50;29.10
43561;DHT22;32305;46.410;17.394;2023-02-11T02:28:04;19.50;29.10
43561;DHT22;32305;46.410;17.394;2023-02-11T02:31:08;19.50;29.10
43561;DHT22;32305;46.410;17.394;2023-02-11T02:33:54;19.50;29.10
43561;DHT22;32305;46.410;17.394;2023-02-11T02:36:42;19.50;29.10
43561;DHT22;32305;46.410;17.394;2023-02-11T02:39:24;19.50;29.10
43561;DHT22;32305;46.410;17.394;2023-02-11T02:41:52;19.50;29.10
43561;DHT22;32305;46.410;17.394;2023-02-11T02:44:20;19.50;29.10
43561;DHT22;32305;46.410;17.394;2023-02-11T02:46:47;19.50;29.10
43561;DHT22;32305;46.410;17.394;2023-02-11T02:49:16;19.50;29.10
43561;DHT22;32305;46.410;17.394;2023-02-11T02:58:14;19.50;29.20
43561;DHT22;32305;46.410;17.394;2023-02-11T03:04:10;19.40;29.10
43561;DHT22;32305;46.410;17.394;2023-02-11T03:07:11;19.40;29.10
43561;DHT22;32305;46.410;17.394;2023-02-11T03:09:44;19.40;29.10
43561;DHT22;32305;46.410;17.394;2023-02-11T03:12:13;19.40;29.10
43561;DHT22;32305;46.410;17.394;2023-02-11T03:14:41;19.50;29.20
43561;DHT22;32305;46.410;17.394;2023-02-11T03:17:09;19.40;29.10
43561;DHT22;32305;46.410;17.394;2023-02-11T03:19:43;19.40;29.10
43561;DHT22;32305;46.410;17.394;2023-02-11T03:22:24;19.40;29.10
43561;DHT22;32305;46.410;17.394;2023-02-11T03:24:54;19.40;29.10
43561;DHT22;32305;46.410;17.394;2023-02-11T03:27:38;19.40;29.10
43561;DHT22;32305;46.410;17.394;2023-02-11T03:30:15;19.40;29.00
43561;DHT22;32305;46.410;17.394;2023-02-11T03:32:51;19.40;29.00
43561;DHT22;32305;46.410;17.394;2023-02-11T03:35:26;19.40;29.00
43561;DHT22;32305;46.410;17.394;2023-02-11T03:38:03;19.40;29.00
43561;DHT22;32305;46.410;17.394;2023-02-11T03:40:34;19.40;29.00
43561;DHT22;32305;46.410;17.394;2023-02-11T03:43:07;19.40;29.00
43561;DHT22;32305;46.410;17.394;2023-02-11T03:45:36;19.40;29.00
43561;DHT22;32305;46.410;17.394;2023-02-11T03:48:11;19.40;29.00
43561;DHT22;32305;46.410;17.394;2023-02-11T03:50:41;19.40;29.00
43561;DHT22;32305;46.410;17.394;2023-02-11T03:53:09;19.40;29.00
43561;DHT22;32305;46.410;17.394;2023-02-11T03:55:39;19.40;29.00
43561;DHT22;32305;46.410;17.394;2023-02-11T03:58:07;19.40;29.00
43561;DHT22;32305;46.410;17.394;2023-02-11T04:00:40;19.40;29.00
43561;DHT22;32305;46.410;17.394;2023-02-11T04:03:08;19.40;29.00
43561;DHT22;32305;46.410;17.394;2023-02-11T04:05:36;19.40;29.00
43561;DHT22;32305;46.410;17.394;2023-02-11T04:08:03;19.40;29.00
43561;DHT22;32305;46.410;17.394;2023-02-11T04:10:30;19.40;29.00
43561;DHT22;32305;46.410;17.394;2023-02-11T04:12:58;19.40;29.50
43561;DHT22;32305;46.410;17.394;2023-02-11T04:15:25;19.40;29.00
43561;DHT22;32305;46.410;17.394;2023-02-11T04:17:52;19.30;29.00
43561;DHT22;32305;46.410;17.394;2023-02-11T04:20:19;19.30;29.00
43561;DHT22;32305;46.410;17.394;2023-02-11T04:22:46;19.40;29.00
43561;DHT22;32305;46.410;17.394;2023-02-11T04:25:13;19.30;29.00
43561;DHT22;32305;46.410;17.394;2023-02-11T04:27:40;19.30;29.00
43561;DHT22;32305;46.410;17.394;2023-02-11T04:30:08;19.30;29.00
43561;DHT22;32305;46.410;17.394;2023-02-11T04:32:35;19.30;29.00
43561;DHT22;32305;46.410;17.394;2023-02-11T04:35:03;19.30;29.00
43561;DHT22;32305;46.410;17.394;2023-02-11T04:37:30;19.30;29.00
43561;DHT22;32305;46.410;17.394;2023-02-11T04:39:57;19.30;29.00
43561;DHT22;32305;46.410;17.394;2023-02-11T04:42:24;19.30;29.00
43561;DHT22;32305;46.410;17.394;2023-02-11T04:44:51;19.30;29.00
43561;DHT22;32305;46.410;17.394;2023-02-11T04:47:18;19.30;29.00
43561;DHT22;32305;46.410;17.394;2023-02-11T04:49:45;19.30;29.00
43561;DHT22;32305;46.410;17.394;2023-02-11T04:52:13;19.30;29.00
43561;DHT22;32305;46.410;17.394;2023-02-11T04:54:40;19.30;28.90
43561;DHT22;32305;46.410;17.394;2023-02-11T04:57:07;19.30;29.00
43561;DHT22;32305;46.410;17.394;2023-02-11T04:59:34;19.30;29.00
43561;DHT22;32305;46.410;17.394;2023-02-11T05:02:01;19.30;29.00
43561;DHT22;32305;46.410;17.394;2023-02-11T05:04:30;19.30;29.00
43561;DHT22;32305;46.410;17.394;2023-02-11T05:06:57;19.30;29.00
43561;DHT22;32305;46.410;17.394;2023-02-11T05:09:24;19.30;29.00
43561;DHT22;32305;46.410;17.394;2023-02-11T05:11:51;19.30;29.00
43561;DHT22;32305;46.410;17.394;2023-02-11T05:14:19;19.30;29.00
43561;DHT22;32305;46.410;17.394;2023-02-11T05:16:46;19.30;29.00
43561;DHT22;32305;46.410;17.394;2023-02-11T05:19:13;19.30;29.00
43561;DHT22;32305;46.410;17.394;2023-02-11T05:21:40;19.30;29.00
43561;DHT22;32305;46.410;17.394;2023-02-11T05:24:22;19.30;29.00
43561;DHT22;32305;46.410;17.394;2023-02-11T05:26:49;19.30;28.90
43561;DHT22;32305;46.410;17.394;2023-02-11T05:29:16;19.30;28.90
43561;DHT22;32305;46.410;17.394;2023-02-11T05:31:44;19.30;28.90
43561;DHT22;32305;46.410;17.394;2023-02-11T05:34:11;19.30;28.90
43561;DHT22;32305;46.410;17.394;2023-02-11T05:36:38;19.30;28.80
43561;DHT22;32305;46.410;17.394;2023-02-11T05:39:05;19.30;28.70
43561;DHT22;32305;46.410;17.394;2023-02-11T05:41:32;19.20;28.60
43561;DHT22;32305;46.410;17.394;2023-02-11T05:43:59;19.20;28.50
43561;DHT22;32305;46.410;17.394;2023-02-11T05:46:27;19.20;28.50
43561;DHT22;32305;46.410;17.394;2023-02-11T05:48:54;19.20;28.50
43561;DHT22;32305;46.410;17.394;2023-02-11T05:51:22;19.10;28.50
43561;DHT22;32305;46.410;17.394;2023-02-11T05:53:51;19.10;28.50
43561;DHT22;32305;46.410;17.394;2023-02-11T05:56:18;19.10;28.50
43561;DHT22;32305;46.410;17.394;2023-02-11T05:58:45;19.10;28.50
43561;DHT22;32305;46.410;17.394;2023-02-11T06:01:12;19.10;28.50
43561;DHT22;32305;46.410;17.394;2023-02-11T06:03:40;19.10;28.50
43561;DHT22;32305;46.410;17.394;2023-02-11T06:06:11;19.10;28.50
43561;DHT22;32305;46.410;17.394;2023-02-11T06:08:38;19.10;28.40
43561;DHT22;32305;46.410;17.394;2023-02-11T06:11:06;19.10;28.40
43561;DHT22;32305;46.410;17.394;2023-02-11T06:13:33;19.10;28.40
43561;DHT22;32305;46.410;17.394;2023-02-11T06:16:01;19.10;28.30
43561;DHT22;32305;46.410;17.394;2023-02-11T06:18:29;19.20;28.30
43561;DHT22;32305;46.410;17.394;2023-02-11T06:20:56;19.20;28.30
43561;DHT22;32305;46.410;17.394;2023-02-11T06:23:23;19.30;28.30
43561;DHT22;32305;46.410;17.394;2023-02-11T06:25:51;19.30;28.20
43561;DHT22;32305;46.410;17.394;2023-02-11T06:28:19;19.30;28.20
43561;DHT22;32305;46.410;17.394;2023-02-11T06:30:46;19.40;28.20
43561;DHT22;32305;46.410;17.394;2023-02-11T06:33:13;19.40;28.10
43561;DHT22;32305;46.410;17.394;2023-02-11T06:35:41;19.40;28.10
43561;DHT22;32305;46.410;17.394;2023-02-11T06:38:08;19.50;28.10
43561;DHT22;32305;46.410;17.394;2023-02-11T06:40:35;19.50;28.00
43561;DHT22;32305;46.410;17.394;2023-02-11T06:43:02;19.60;28.00
43561;DHT22;32305;46.410;17.394;2023-02-11T06:45:29;19.60;27.90
43561;DHT22;32305;46.410;17.394;2023-02-11T06:47:56;19.60;27.80
43561;DHT22;32305;46.410;17.394;2023-02-11T06:50:24;19.70;27.90
43561;DHT22;32305;46.410;17.394;2023-02-11T06:52:51;19.80;27.80
43561;DHT22;32305;46.410;17.394;2023-02-11T06:55:18;19.80;27.80
43561;DHT22;32305;46.410;17.394;2023-02-11T06:57:45;19.80;27.70
43561;DHT22;32305;46.410;17.394;2023-02-11T07:00:13;19.90;27.70
43561;DHT22;32305;46.410;17.394;2023-02-11T07:02:40;19.90;27.70
43561;DHT22;32305;46.410;17.394;2023-02-11T07:05:07;19.90;27.60
43561;DHT22;32305;46.410;17.394;2023-02-11T07:07:35;20.00;27.60
43561;DHT22;32305;46.410;17.394;2023-02-11T07:10:03;20.00;27.60
43561;DHT22;32305;46.410;17.394;2023-02-11T07:12:31;20.10;27.60
43561;DHT22;32305;46.410;17.394;2023-02-11T07:14:58;20.10;27.60
43561;DHT22;32305;46.410;17.394;2023-02-11T07:17:25;20.20;27.60
43561;DHT22;32305;46.410;17.394;2023-02-11T07:19:53;20.20;27.50
43561;DHT22;32305;46.410;17.394;2023-02-11T07:22:20;20.20;27.40
43561;DHT22;32305;46.410;17.394;2023-02-11T07:24:47;20.30;27.50
43561;DHT22;32305;46.410;17.394;2023-02-11T07:27:14;20.30;27.40
43561;DHT22;32305;46.410;17.394;2023-02-11T07:29:41;20.40;27.40
43561;DHT22;32305;46.410;17.394;2023-02-11T07:32:09;20.40;27.40
43561;DHT22;32305;46.410;17.394;2023-02-11T07:34:36;20.50;27.40
43561;DHT22;32305;46.410;17.394;2023-02-11T07:37:03;20.50;27.30
43561;DHT22;32305;46.410;17.394;2023-02-11T07:39:31;20.60;27.20
43561;DHT22;32305;46.410;17.394;2023-02-11T07:41:58;20.60;27.20
43561;DHT22;32305;46.410;17.394;2023-02-11T07:44:26;20.60;27.10
43561;DHT22;32305;46.410;17.394;2023-02-11T07:46:53;20.70;27.10
43561;DHT22;32305;46.410;17.394;2023-02-11T07:49:20;20.80;27.10
43561;DHT22;32305;46.410;17.394;2023-02-11T07:51:47;20.80;27.10
43561;DHT22;32305;46.410;17.394;2023-02-11T07:54:17;20.80;27.00
43561;DHT22;32305;46.410;17.394;2023-02-11T07:56:44;20.90;27.00
43561;DHT22;32305;46.410;17.394;2023-02-11T07:59:11;20.90;27.00
43561;DHT22;32305;46.410;17.394;2023-02-11T08:01:38;20.90;26.90
43561;DHT22;32305;46.410;17.394;2023-02-11T08:04:06;21.00;26.90
43561;DHT22;32305;46.410;17.394;2023-02-11T08:06:34;21.00;26.90
43561;DHT22;32305;46.410;17.394;2023-02-11T08:09:06;21.10;26.90
43561;DHT22;32305;46.410;17.394;2023-02-11T08:11:35;21.10;26.90
43561;DHT22;32305;46.410;17.394;2023-02-11T08:14:02;21.10;26.80
43561;DHT22;32305;46.410;17.394;2023-02-11T08:16:32;21.20;26.80
43561;DHT22;32305;46.410;17.394;2023-02-11T08:19:03;21.20;26.80
43561;DHT22;32305;46.410;17.394;2023-02-11T08:21:30;21.20;26.80
43561;DHT22;32305;46.410;17.394;2023-02-11T08:23:57;21.30;26.80
43561;DHT22;32305;46.410;17.394;2023-02-11T08:26:27;21.30;26.70
43561;DHT22;32305;46.410;17.394;2023-02-11T08:28:55;21.40;26.70
43561;DHT22;32305;46.410;17.394;2023-02-11T08:31:29;21.40;26.70
43561;DHT22;32305;46.410;17.394;2023-02-11T08:33:57;21.50;26.70
43561;DHT22;32305;46.410;17.394;2023-02-11T08:36:27;21.50;26.60
43561;DHT22;32305;46.410;17.394;2023-02-11T08:38:56;21.50;26.50
43561;DHT22;32305;46.410;17.394;2023-02-11T08:41:44;21.60;26.50
43561;DHT22;32305;46.410;17.394;2023-02-11T08:44:11;21.60;26.50
43561;DHT22;32305;46.410;17.394;2023-02-11T08:46:38;21.70;26.50
43561;DHT22;32305;46.410;17.394;2023-02-11T08:49:05;21.70;26.40
43561;DHT22;32305;46.410;17.394;2023-02-11T08:51:33;21.70;26.40
43561;DHT22;32305;46.410;17.394;2023-02-11T08:54:00;21.80;26.40
43561;DHT22;32305;46.410;17.394;2023-02-11T08:56:27;21.80;26.30
43561;DHT22;32305;46.410;17.394;2023-02-11T08:58:54;21.80;26.30
43561;DHT22;32305;46.410;17.394;2023-02-11T09:01:24;21.90;26.30
43561;DHT22;32305;46.410;17.394;2023-02-11T09:03:52;21.90;26.30
43561;DHT22;32305;46.410;17.394;2023-02-11T09:06:20;21.90;26.30
43561;DHT22;32305;46.410;17.394;2023-02-11T09:08:50;22.00;26.20
43561;DHT22;32305;46.410;17.394;2023-02-11T09:11:20;22.00;26.60
43561;DHT22;32305;46.410;17.394;2023-02-11T09:13:47;22.00;26.20
43561;DHT22;32305;46.410;17.394;2023-02-11T09:16:23;22.10;26.20
43561;DHT22;32305;46.410;17.394;2023-02-11T09:18:51;22.10;26.10
43561;DHT22;32305;46.410;17.394;2023-02-11T09:21:19;22.10;26.10
43561;DHT22;32305;46.410;17.394;2023-02-11T09:23:46;22.20;26.10
43561;DHT22;32305;46.410;17.394;2023-02-11T09:26:24;22.20;26.10
43561;DHT22;32305;46.410;17.394;2023-02-11T09:28:52;22.20;26.00
43561;DHT22;32305;46.410;17.394;2023-02-11T09:31:21;22.20;26.00
43561;DHT22;32305;46.410;17.394;2023-02-11T09:33:51;22.30;26.00
43561;DHT22;32305;46.410;17.394;2023-02-11T09:36:21;22.30;26.00
43561;DHT22;32305;46.410;17.394;2023-02-11T09:38:49;22.30;25.90
43561;DHT22;32305;46.410;17.394;2023-02-11T09:41:34;22.40;25.90
43561;DHT22;32305;46.410;17.394;2023-02-11T09:44:05;22.40;25.90
43561;DHT22;32305;46.410;17.394;2023-02-11T09:46:34;22.40;25.80
43561;DHT22;32305;46.410;17.394;2023-02-11T09:49:02;22.40;25.80
43561;DHT22;32305;46.410;17.394;2023-02-11T09:51:45;22.50;25.80
43561;DHT22;32305;46.410;17.394;2023-02-11T09:54:27;22.50;25.80
43561;DHT22;32305;46.410;17.394;2023-02-11T09:56:56;22.50;25.80
43561;DHT22;32305;46.410;17.394;2023-02-11T09:59:23;22.50;25.80
43561;DHT22;32305;46.410;17.394;2023-02-11T10:01:56;22.60;25.70
43561;DHT22;32305;46.410;17.394;2023-02-11T10:04:49;22.60;25.70
43561;DHT22;32305;46.410;17.394;2023-02-11T10:07:32;22.60;25.70
43561;DHT22;32305;46.410;17.394;2023-02-11T10:10:31;22.60;25.70
43561;DHT22;32305;46.410;17.394;2023-02-11T10:13:23;22.60;25.70
43561;DHT22;32305;46.410;17.394;2023-02-11T10:16:12;22.70;25.70
43561;DHT22;32305;46.410;17.394;2023-02-11T10:19:01;22.70;25.70
43561;DHT22;32305;46.410;17.394;2023-02-11T10:22:02;22.70;25.60
43561;DHT22;32305;46.410;17.394;2023-02-11T10:24:26;22.70;25.60
43561;DHT22;32305;46.410;17.394;2023-02-11T10:26:54;22.80;25.70
43561;DHT22;32305;46.410;17.394;2023-02-11T10:29:34;22.80;25.60
43561;DHT22;32305;46.410;17.394;2023-02-11T10:32:10;22.90;25.60
43561;DHT22;32305;46.410;17.394;2023-02-11T10:34:42;23.00;25.60
43561;DHT22;32305;46.410;17.394;2023-02-11T10:37:12;23.00;25.60
43561;DHT22;32305;46.410;17.394;2023-02-11T10:39:40;23.10;25.60
43561;DHT22;32305;46.410;17.394;2023-02-11T10:42:10;23.10;25.50
43561;DHT22;32305;46.410;17.394;2023-02-11T10:44:42;23.20;25.50
43561;DHT22;32305;46.410;17.394;2023-02-11T10:47:17;23.30;25.50
43561;DHT22;32305;46.410;17.394;2023-02-11T10:49:47;23.30;25.50
43561;DHT22;32305;46.410;17.394;2023-02-11T10:52:25;23.30;25.50
43561;DHT22;32305;46.410;17.394;2023-02-11T10:58:00;23.40;25.40
43561;DHT22;32305;46.410;17.394;2023-02-11T11:00:38;23.40;25.40
43561;DHT22;32305;46.410;17.394;2023-02-11T11:03:18;23.40;25.30
43561;DHT22;32305;46.410;17.394;2023-02-11T11:05:49;23.50;25.30
43561;DHT22;32305;46.410;17.394;2023-02-11T11:08:17;23.50;25.30
43561;DHT22;32305;46.410;17.394;2023-02-11T11:10:47;23.60;25.30
43561;DHT22;32305;46.410;17.394;2023-02-11T11:13:32;23.60;25.20
43561;DHT22;32305;46.410;17.394;2023-02-11T11:16:18;23.60;25.20
43561;DHT22;32305;46.410;17.394;2023-02-11T11:18:48;23.60;25.20
43561;DHT22;32305;46.410;17.394;2023-02-11T11:21:23;23.60;25.10
43561;DHT22;32305;46.410;17.394;2023-02-11T11:23:59;23.70;25.10
43561;DHT22;32305;46.410;17.394;2023-02-11T11:26:41;23.70;25.10
43561;DHT22;32305;46.410;17.394;2023-02-11T11:29:19;23.80;25.00
43561;DHT22;32305;46.410;17.394;2023-02-11T11:31:54;23.80;25.00
43561;DHT22;32305;46.410;17.394;2023-02-11T11:34:36;23.80;25.00
43561;DHT22;32305;46.410;17.394;2023-02-11T11:37:26;23.80;25.00
43561;DHT22;32305;46.410;17.394;2023-02-11T11:40:09;23.80;24.90
43561;DHT22;32305;46.410;17.394;2023-02-11T11:42:43;23.80;24.90
43561;DHT22;32305;46.410;17.394;2023-02-11T11:45:24;23.90;25.00
43561;DHT22;32305;46.410;17.394;2023-02-11T11:48:02;23.90;25.00
43561;DHT22;32305;46.410;17.394;2023-02-11T11:50:36;23.90;25.00
43561;DHT22;32305;46.410;17.394;2023-02-11T11:58:51;23.80;25.00
43561;DHT22;32305;46.410;17.394;2023-02-11T12:01:47;23.80;25.50
43561;DHT22;32305;46.410;17.394;2023-02-11T12:04:46;23.80;25.00
43561;DHT22;32305;46.410;17.394;2023-02-11T12:07:49;23.80;25.00
43561;DHT22;32305;46.410;17.394;2023-02-11T12:10:47;23.80;25.00
43561;DHT22;32305;46.410;17.394;2023-02-11T12:16:43;23.80;25.00
43561;DHT22;32305;46.410;17.394;2023-02-11T12:19:53;23.70;24.90
43561;DHT22;32305;46.410;17.394;2023-02-11T12:22:33;23.70;25.00
43561;DHT22;32305;46.410;17.394;2023-02-11T12:25:29;23.70;24.90
43561;DHT22;32305;46.410;17.394;2023-02-11T12:28:28;23.70;24.90
43561;DHT22;32305;46.410;17.394;2023-02-11T12:31:19;23.70;24.90
43561;DHT22;32305;46.410;17.394;2023-02-11T12:37:13;23.70;25.00
43561;DHT22;32305;46.410;17.394;2023-02-11T12:39:56;23.70;25.00
43561;DHT22;32305;46.410;17.394;2023-02-11T12:46:23;23.70;24.90
43561;DHT22;32305;46.410;17.394;2023-02-11T12:52:19;23.70;24.80
43561;DHT22;32305;46.410;17.394;2023-02-11T12:54:55;23.80;24.80
43561;DHT22;32305;46.410;17.394;2023-02-11T12:57:30;23.80;24.80
43561;DHT22;32305;46.410;17.394;2023-02-11T13:00:20;23.70;24.70
43561;DHT22;32305;46.410;17.394;2023-02-11T13:03:05;23.70;24.70
43561;DHT22;32305;46.410;17.394;2023-02-11T13:05:38;23.70;24.70
43561;DHT22;32305;46.410;17.394;2023-02-11T13:08:27;23.70;25.10
43561;DHT22;32305;46.410;17.394;2023-02-11T13:11:00;23.70;24.60
43561;DHT22;32305;46.410;17.394;2023-02-11T13:13:36;23.70;24.70
43561;DHT22;32305;46.410;17.394;2023-02-11T13:16:13;23.70;24.60
43561;DHT22;32305;46.410;17.394;2023-02-11T13:19:16;23.70;24.60
43561;DHT22;32305;46.410;17.394;2023-02-11T13:22:05;23.70;24.60
43561;DHT22;32305;46.410;17.394;2023-02-11T13:24:52;23.70;24.60
43561;DHT22;32305;46.410;17.394;2023-02-11T13:27:43;23.70;24.60
43561;DHT22;32305;46.410;17.394;2023-02-11T13:30:22;23.80;24.60
43561;DHT22;32305;46.410;17.394;2023-02-11T13:33:18;23.70;24.60
43561;DHT22;32305;46.410;17.394;2023-02-11T13:36:08;23.70;24.70
43561;DHT22;32305;46.410;17.394;2023-02-11T13:38:35;23.70;24.60
43561;DHT22;32305;46.410;17.394;2023-02-11T13:41:13;23.70;24.60
43561;DHT22;32305;46.410;17.394;2023-02-11T13:43:43;23.70;24.50
43561;DHT22;32305;46.410;17.394;2023-02-11T13:46:11;23.70;24.60
43561;DHT22;32305;46.410;17.394;2023-02-11T13:48:49;23.70;24.50
43561;DHT22;32305;46.410;17.394;2023-02-11T13:51:35;23.70;24.50
43561;DHT22;32305;46.410;17.394;2023-02-11T13:54:04;23.70;24.50
43561;DHT22;32305;46.410;17.394;2023-02-11T13:56:35;23.70;24.50
43561;DHT22;32305;46.410;17.394;2023-02-11T14:02:23;23.70;24.50
43561;DHT22;32305;46.410;17.394;2023-02-11T14:05:30;23.70;24.50
43561;DHT22;32305;46.410;17.394;2023-02-11T14:08:22;23.70;24.50
43561;DHT22;32305;46.410;17.394;2023-02-11T14:11:46;23.80;24.50
43561;DHT22;32305;46.410;17.394;2023-02-11T14:14:23;23.70;24.40
43561;DHT22;32305;46.410;17.394;2023-02-11T14:17:15;23.70;24.40
43561;DHT22;32305;46.410;17.394;2023-02-11T14:19:45;23.70;24.40
43561;DHT22;32305;46.410;17.394;2023-02-11T14:22:27;23.70;24.50
43561;DHT22;32305;46.410;17.394;2023-02-11T14:25:02;23.70;24.40
43561;DHT22;32305;46.410;17.394;2023-02-11T14:27:41;23.70;24.40
43561;DHT22;32305;46.410;17.394;2023-02-11T14:30:25;23.70;24.50
43561;DHT22;32305;46.410;17.394;2023-02-11T14:33:19;23.70;24.40
43561;DHT22;32305;46.410;17.394;2023-02-11T14:39:06;23.60;24.40
43561;DHT22;32305;46.410;17.394;2023-02-11T14:41:42;23.60;24.50
43561;DHT22;32305;46.410;17.394;2023-02-11T14:44:18;23.50;24.40
43561;DHT22;32305;46.410;17.394;2023-02-11T14:46:48;23.50;24.40
43561;DHT22;32305;46.410;17.394;2023-02-11T14:49:24;23.40;24.40
43561;DHT22;32305;46.410;17.394;2023-02-11T14:52:03;23.50;24.40
43561;DHT22;32305;46.410;17.394;2023-02-11T14:54:32;23.40;24.40
43561;DHT22;32305;46.410;17.394;2023-02-11T14:57:13;23.40;24.40
43561;DHT22;32305;46.410;17.394;2023-02-11T14:59:59;23.40;24.50
43561;DHT22;32305;46.410;17.394;2023-02-11T15:02:33;23.40;24.40
43561;DHT22;32305;46.410;17.394;2023-02-11T15:05:16;23.40;24.50
43561;DHT22;32305;46.410;17.394;2023-02-11T15:07:55;23.30;24.60
43561;DHT22;32305;46.410;17.394;2023-02-11T15:10:35;23.30;24.70
43561;DHT22;32305;46.410;17.394;2023-02-11T15:13:04;23.30;24.70
43561;DHT22;32305;46.410;17.394;2023-02-11T15:15:32;23.30;24.80
43561;DHT22;32305;46.410;17.394;2023-02-11T15:18:02;23.30;24.90
43561;DHT22;32305;46.410;17.394;2023-02-11T15:20:31;23.20;24.90
43561;DHT22;32305;46.410;17.394;2023-02-11T15:23:02;23.10;24.90
43561;DHT22;32305;46.410;17.394;2023-02-11T15:25:31;23.10;25.00
43561;DHT22;32305;46.410;17.394;2023-02-11T15:28:00;23.00;25.00
43561;DHT22;32305;46.410;17.394;2023-02-11T15:30:31;23.00;25.10
43561;DHT22;32305;46.410;17.394;2023-02-11T15:33:02;22.90;25.20
43561;DHT22;32305;46.410;17.394;2023-02-11T15:35:37;22.90;25.20
43561;DHT22;32305;46.410;17.394;2023-02-11T15:38:08;22.80;25.30
43561;DHT22;32305;46.410;17.394;2023-02-11T15:40:36;22.80;25.30
43561;DHT22;32305;46.410;17.394;2023-02-11T15:43:06;22.70;25.40
43561;DHT22;32305;46.410;17.394;2023-02-11T15:45:43;22.70;25.50
43561;DHT22;32305;46.410;17.394;2023-02-11T15:48:18;22.60;25.90
43561;DHT22;32305;46.410;17.394;2023-02-11T15:50:56;22.60;25.60
43561;DHT22;32305;46.410;17.394;2023-02-11T15:53:31;22.50;25.60
43561;DHT22;32305;46.410;17.394;2023-02-11T15:56:18;22.50;25.60
43561;DHT22;32305;46.410;17.394;2023-02-11T15:58:47;22.50;25.70
43561;DHT22;32305;46.410;17.394;2023-02-11T16:01:15;22.40;25.70
43561;DHT22;32305;46.410;17.394;2023-02-11T16:03:43;22.40;25.80
43561;DHT22;32305;46.410;17.394;2023-02-11T16:06:24;22.30;25.80
43561;DHT22;32305;46.410;17.394;2023-02-11T16:09:03;22.30;25.90
43561;DHT22;32305;46.410;17.394;2023-02-11T16:11:34;22.20;25.90
43561;DHT22;32305;46.410;17.394;2023-02-11T16:14:30;22.20;25.90
43561;DHT22;32305;46.410;17.394;2023-02-11T16:17:10;22.20;26.00
43561;DHT22;32305;46.410;17.394;2023-02-11T16:19:49;22.10;26.00
43561;DHT22;32305;46.410;17.394;2023-02-11T16:22:23;22.10;26.10
43561;DHT22;32305;46.410;17.394;2023-02-11T16:24:54;22.00;26.10
43561;DHT22;32305;46.410;17.394;2023-02-11T16:27:35;22.00;26.20
43561;DHT22;32305;46.410;17.394;2023-02-11T16:30:04;22.00;26.20
43561;DHT22;32305;46.410;17.394;2023-02-11T16:32:31;21.90;26.20
43561;DHT22;32305;46.410;17.394;2023-02-11T16:34:59;21.90;26.30